KAXV/AXV METAR and TAF weather

Enter ICAO airport designator
Station Type Date Time Source
KAXV METAR 2020/03/28 20:55 UTC NOAA

KAXV 282055Z AUTO 00000KT 5SM BR SCT014 BKN022 SCT026 15/14 A2976 RMK AO2


Station Type Date Time Source
KAXV Decoded METAR 2020/03/28 20:55 UTC NOAA

Station name not available
Mar 28, 2020 - 04:55 PM EDT / 2020.03.28 2055 UTC
Wind: Calm:0
Visibility: 5 mile(s):0
Sky conditions: mostly cloudy
Weather: mist
Temperature: 59 F (15 C)
Dew Point: 57 F (14 C)
Relative Humidity: 93%
Pressure (altimeter): 29.76 in. Hg (1007 hPa)
ob: KAXV 282055Z AUTO 00000KT 5SM BR SCT014 BKN022 SCT026 15/14 A2976 RMK AO2
cycle: 21

Station Type Date Time Source
KAXV TAF UTC NOAA

Error!

Example: see airport list